sensor_id;sensor_type;location;lat;lon;timestamp;P1;P2;P0
73687;PMS7003;62257;48.376;-4.378;2022-12-07T00:03:39;20.75;15.75;9.50
73687;PMS7003;62257;48.376;-4.378;2022-12-07T00:06:06;14.00;11.00;8.75
73687;PMS7003;62257;48.376;-4.378;2022-12-07T00:08:33;12.25;10.50;7.00
73687;PMS7003;62257;48.376;-4.378;2022-12-07T00:11:03;19.00;13.00;9.50
73687;PMS7003;62257;48.376;-4.378;2022-12-07T00:13:30;16.25;10.00;6.00
73687;PMS7003;62257;48.376;-4.378;2022-12-07T00:15:55;10.75;5.50;4.25
73687;PMS7003;62257;48.376;-4.378;2022-12-07T00:18:21;8.75;7.00;5.00
73687;PMS7003;62257;48.376;-4.378;2022-12-07T00:20:46;13.00;10.25;6.50
73687;PMS7003;62257;48.376;-4.378;2022-12-07T00:23:11;9.50;8.00;6.00
73687;PMS7003;62257;48.376;-4.378;2022-12-07T00:25:37;11.00;7.00;5.00
73687;PMS7003;62257;48.376;-4.378;2022-12-07T00:28:02;7.00;6.00;3.00
73687;PMS7003;62257;48.376;-4.378;2022-12-07T00:30:28;9.75;7.00;6.00
73687;PMS7003;62257;48.376;-4.378;2022-12-07T00:32:53;10.75;9.00;5.75
73687;PMS7003;62257;48.376;-4.378;2022-12-07T00:35:18;10.25;8.25;3.50
73687;PMS7003;62257;48.376;-4.378;2022-12-07T00:37:44;7.00;6.00;5.00
73687;PMS7003;62257;48.376;-4.378;2022-12-07T00:40:09;7.75;6.50;5.00
73687;PMS7003;62257;48.376;-4.378;2022-12-07T00:42:35;17.75;13.50;8.25
73687;PMS7003;62257;48.376;-4.378;2022-12-07T00:45:00;15.00;11.25;6.25
73687;PMS7003;62257;48.376;-4.378;2022-12-07T00:47:26;7.75;6.00;5.00
73687;PMS7003;62257;48.376;-4.378;2022-12-07T00:49:51;3.50;3.50;3.00
73687;PMS7003;62257;48.376;-4.378;2022-12-07T00:52:17;5.75;5.00;4.50
73687;PMS7003;62257;48.376;-4.378;2022-12-07T00:54:42;7.00;7.00;5.00
73687;PMS7003;62257;48.376;-4.378;2022-12-07T00:57:07;10.00;7.75;6.00
73687;PMS7003;62257;48.376;-4.378;2022-12-07T00:59:33;10.50;5.00;3.50
73687;PMS7003;62257;48.376;-4.378;2022-12-07T01:01:58;2.50;2.50;2.00
73687;PMS7003;62257;48.376;-4.378;2022-12-07T01:04:23;8.00;7.25;5.25
73687;PMS7003;62257;48.376;-4.378;2022-12-07T01:06:49;6.75;6.75;6.00
73687;PMS7003;62257;48.376;-4.378;2022-12-07T01:09:14;11.25;8.00;6.00
73687;PMS7003;62257;48.376;-4.378;2022-12-07T01:11:40;14.50;10.50;6.75
73687;PMS7003;62257;48.376;-4.378;2022-12-07T01:14:05;7.50;7.50;6.00
73687;PMS7003;62257;48.376;-4.378;2022-12-07T01:16:31;13.25;9.00;6.25
73687;PMS7003;62257;48.376;-4.378;2022-12-07T01:18:58;15.00;11.00;6.50
73687;PMS7003;62257;48.376;-4.378;2022-12-07T01:21:25;12.50;10.00;6.75
73687;PMS7003;62257;48.376;-4.378;2022-12-07T01:23:53;11.50;10.75;7.50
73687;PMS7003;62257;48.376;-4.378;2022-12-07T01:26:20;14.50;8.25;6.00
73687;PMS7003;62257;48.376;-4.378;2022-12-07T01:28:47;7.00;7.00;5.00
73687;PMS7003;62257;48.376;-4.378;2022-12-07T01:31:13;15.00;11.50;8.00
73687;PMS7003;62257;48.376;-4.378;2022-12-07T01:33:41;10.75;9.25;6.00
73687;PMS7003;62257;48.376;-4.378;2022-12-07T01:38:37;9.75;7.00;5.50
73687;PMS7003;62257;48.376;-4.378;2022-12-07T01:41:02;7.00;7.00;5.00
73687;PMS7003;62257;48.376;-4.378;2022-12-07T01:43:32;6.75;6.25;5.50
73687;PMS7003;62257;48.376;-4.378;2022-12-07T01:45:58;10.25;8.50;6.00
73687;PMS7003;62257;48.376;-4.378;2022-12-07T01:48:29;11.00;8.75;6.25
73687;PMS7003;62257;48.376;-4.378;2022-12-07T01:51:01;12.00;10.25;7.50
73687;PMS7003;62257;48.376;-4.378;2022-12-07T01:53:30;13.50;11.00;7.75
73687;PMS7003;62257;48.376;-4.378;2022-12-07T01:55:59;12.75;9.00;7.00
73687;PMS7003;62257;48.376;-4.378;2022-12-07T01:58:24;13.50;8.75;6.25
73687;PMS7003;62257;48.376;-4.378;2022-12-07T02:00:50;8.75;6.75;5.00
73687;PMS7003;62257;48.376;-4.378;2022-12-07T02:05:47;10.00;10.00;7.00
73687;PMS7003;62257;48.376;-4.378;2022-12-07T02:08:14;7.00;6.00;4.50
73687;PMS7003;62257;48.376;-4.378;2022-12-07T02:10:41;9.00;9.00;5.00
73687;PMS7003;62257;48.376;-4.378;2022-12-07T02:13:13;9.75;5.75;4.75
73687;PMS7003;62257;48.376;-4.378;2022-12-07T02:18:28;14.00;7.00;5.75
73687;PMS7003;62257;48.376;-4.378;2022-12-07T02:29:22;9.00;5.00;4.75
73687;PMS7003;62257;48.376;-4.378;2022-12-07T02:34:49;8.50;8.00;6.00
73687;PMS7003;62257;48.376;-4.378;2022-12-07T02:39:48;9.75;8.00;6.00
73687;PMS7003;62257;48.376;-4.378;2022-12-07T02:42:25;14.25;11.25;7.25
73687;PMS7003;62257;48.376;-4.378;2022-12-07T02:44:58;15.75;11.75;6.50
73687;PMS7003;62257;48.376;-4.378;2022-12-07T02:47:25;10.75;7.25;5.00
73687;PMS7003;62257;48.376;-4.378;2022-12-07T02:49:54;11.00;9.75;6.75
73687;PMS7003;62257;48.376;-4.378;2022-12-07T02:52:20;7.75;6.75;6.00
73687;PMS7003;62257;48.376;-4.378;2022-12-07T02:54:45;13.75;8.00;6.00
73687;PMS7003;62257;48.376;-4.378;2022-12-07T03:00:09;17.75;9.50;6.25
73687;PMS7003;62257;48.376;-4.378;2022-12-07T03:08:07;6.50;5.25;4.00
73687;PMS7003;62257;48.376;-4.378;2022-12-07T03:10:42;16.00;10.25;6.00
73687;PMS7003;62257;48.376;-4.378;2022-12-07T03:13:34;11.75;10.25;7.00
73687;PMS7003;62257;48.376;-4.378;2022-12-07T03:16:18;14.25;9.75;5.00
73687;PMS7003;62257;48.376;-4.378;2022-12-07T03:19:03;12.00;9.25;7.00
73687;PMS7003;62257;48.376;-4.378;2022-12-07T03:21:35;10.25;9.25;6.50
73687;PMS7003;62257;48.376;-4.378;2022-12-07T03:24:06;10.00;9.25;6.25
73687;PMS7003;62257;48.376;-4.378;2022-12-07T03:26:38;14.50;10.00;6.75
73687;PMS7003;62257;48.376;-4.378;2022-12-07T03:29:09;9.75;7.75;5.75
73687;PMS7003;62257;48.376;-4.378;2022-12-07T03:31:43;11.50;9.50;6.00
73687;PMS7003;62257;48.376;-4.378;2022-12-07T03:34:40;6.25;6.25;3.00
73687;PMS7003;62257;48.376;-4.378;2022-12-07T03:37:38;16.75;10.75;7.00
73687;PMS7003;62257;48.376;-4.378;2022-12-07T03:40:13;12.50;10.50;7.75
73687;PMS7003;62257;48.376;-4.378;2022-12-07T03:42:44;12.00;9.25;6.50
73687;PMS7003;62257;48.376;-4.378;2022-12-07T03:45:11;11.25;9.25;6.50
73687;PMS7003;62257;48.376;-4.378;2022-12-07T03:47:41;8.75;8.75;6.25
73687;PMS7003;62257;48.376;-4.378;2022-12-07T03:53:19;14.50;12.00;8.00
73687;PMS7003;62257;48.376;-4.378;2022-12-07T03:55:49;7.00;6.25;4.00
73687;PMS7003;62257;48.376;-4.378;2022-12-07T03:58:18;6.50;6.00;5.00
73687;PMS7003;62257;48.376;-4.378;2022-12-07T04:00:46;9.75;6.50;6.00
73687;PMS7003;62257;48.376;-4.378;2022-12-07T04:03:12;13.25;8.50;6.00
73687;PMS7003;62257;48.376;-4.378;2022-12-07T04:05:38;10.75;8.00;6.00
73687;PMS7003;62257;48.376;-4.378;2022-12-07T04:08:04;6.75;6.75;3.50
73687;PMS7003;62257;48.376;-4.378;2022-12-07T04:10:29;12.25;7.00;6.00
73687;PMS7003;62257;48.376;-4.378;2022-12-07T04:12:55;10.75;10.75;6.00
73687;PMS7003;62257;48.376;-4.378;2022-12-07T04:15:21;7.00;6.75;4.50
73687;PMS7003;62257;48.376;-4.378;2022-12-07T04:17:46;12.00;10.00;7.00
73687;PMS7003;62257;48.376;-4.378;2022-12-07T04:20:12;13.25;9.50;6.00
73687;PMS7003;62257;48.376;-4.378;2022-12-07T04:22:37;6.00;6.00;5.00
73687;PMS7003;62257;48.376;-4.378;2022-12-07T04:25:03;10.75;7.25;5.75
73687;PMS7003;62257;48.376;-4.378;2022-12-07T04:27:29;6.50;6.00;5.00
73687;PMS7003;62257;48.376;-4.378;2022-12-07T04:29:54;7.00;5.50;4.75
73687;PMS7003;62257;48.376;-4.378;2022-12-07T04:32:20;7.00;7.00;5.25
73687;PMS7003;62257;48.376;-4.378;2022-12-07T04:34:46;7.00;6.50;5.75
73687;PMS7003;62257;48.376;-4.378;2022-12-07T04:37:12;6.75;6.00;5.00
73687;PMS7003;62257;48.376;-4.378;2022-12-07T04:39:37;8.00;5.00;3.00
73687;PMS7003;62257;48.376;-4.378;2022-12-07T04:42:02;5.50;5.50;3.00
73687;PMS7003;62257;48.376;-4.378;2022-12-07T04:44:28;6.75;6.75;4.50
73687;PMS7003;62257;48.376;-4.378;2022-12-07T04:46:54;5.25;3.75;3.00
73687;PMS7003;62257;48.376;-4.378;2022-12-07T04:49:20;6.25;5.00;4.25
73687;PMS7003;62257;48.376;-4.378;2022-12-07T04:51:46;8.50;5.75;5.00
73687;PMS7003;62257;48.376;-4.378;2022-12-07T04:54:12;5.00;3.00;3.00
73687;PMS7003;62257;48.376;-4.378;2022-12-07T04:56:38;6.50;6.00;3.00
73687;PMS7003;62257;48.376;-4.378;2022-12-07T04:59:04;8.75;6.25;5.00
73687;PMS7003;62257;48.376;-4.378;2022-12-07T05:01:30;10.00;8.00;6.00
73687;PMS7003;62257;48.376;-4.378;2022-12-07T05:03:56;7.75;6.75;5.00
73687;PMS7003;62257;48.376;-4.378;2022-12-07T05:06:21;6.75;5.25;3.00
73687;PMS7003;62257;48.376;-4.378;2022-12-07T05:08:47;6.25;5.75;5.00
73687;PMS7003;62257;48.376;-4.378;2022-12-07T05:11:13;6.00;6.00;5.00
73687;PMS7003;62257;48.376;-4.378;2022-12-07T05:13:59;10.75;9.50;6.00
73687;PMS7003;62257;48.376;-4.378;2022-12-07T05:16:25;11.00;10.67;8.00
73687;PMS7003;62257;48.376;-4.378;2022-12-07T05:18:51;11.50;7.00;6.00
73687;PMS7003;62257;48.376;-4.378;2022-12-07T05:21:16;11.50;10.00;5.50
73687;PMS7003;62257;48.376;-4.378;2022-12-07T05:23:42;8.50;8.50;5.75
73687;PMS7003;62257;48.376;-4.378;2022-12-07T05:26:07;4.00;4.00;3.00
73687;PMS7003;62257;48.376;-4.378;2022-12-07T05:28:33;4.00;4.00;2.50
73687;PMS7003;62257;48.376;-4.378;2022-12-07T05:30:58;2.00;2.00;2.00
73687;PMS7003;62257;48.376;-4.378;2022-12-07T05:33:23;2.75;2.75;2.00
73687;PMS7003;62257;48.376;-4.378;2022-12-07T05:35:49;2.00;2.00;2.00
73687;PMS7003;62257;48.376;-4.378;2022-12-07T05:38:14;2.50;2.50;2.25
73687;PMS7003;62257;48.376;-4.378;2022-12-07T05:40:39;5.00;3.00;2.00
73687;PMS7003;62257;48.376;-4.378;2022-12-07T05:43:05;3.00;3.00;2.25
73687;PMS7003;62257;48.376;-4.378;2022-12-07T05:45:30;9.75;6.00;4.50
73687;PMS7003;62257;48.376;-4.378;2022-12-07T05:47:56;9.75;8.50;6.00
73687;PMS7003;62257;48.376;-4.378;2022-12-07T05:50:21;5.50;5.50;3.50
73687;PMS7003;62257;48.376;-4.378;2022-12-07T05:52:46;6.00;5.00;3.00
73687;PMS7003;62257;48.376;-4.378;2022-12-07T05:55:12;3.50;3.00;2.50
73687;PMS7003;62257;48.376;-4.378;2022-12-07T05:57:38;2.75;2.75;2.00
73687;PMS7003;62257;48.376;-4.378;2022-12-07T06:00:03;6.25;3.00;2.25
73687;PMS7003;62257;48.376;-4.378;2022-12-07T06:02:30;4.25;3.00;2.50
73687;PMS7003;62257;48.376;-4.378;2022-12-07T06:04:55;5.50;3.00;2.00
73687;PMS7003;62257;48.376;-4.378;2022-12-07T06:07:20;1.00;1.00;1.00
73687;PMS7003;62257;48.376;-4.378;2022-12-07T06:09:46;3.50;2.75;1.75
73687;PMS7003;62257;48.376;-4.378;2022-12-07T06:12:12;2.50;2.00;2.00
73687;PMS7003;62257;48.376;-4.378;2022-12-07T06:14:56;0.75;0.75;0.00
73687;PMS7003;62257;48.376;-4.378;2022-12-07T06:17:22;2.00;2.00;1.50
73687;PMS7003;62257;48.376;-4.378;2022-12-07T06:19:47;2.00;2.00;1.75
73687;PMS7003;62257;48.376;-4.378;2022-12-07T06:22:13;5.50;2.00;1.50
73687;PMS7003;62257;48.376;-4.378;2022-12-07T06:24:38;3.00;2.00;1.75
73687;PMS7003;62257;48.376;-4.378;2022-12-07T06:27:05;2.50;2.50;2.25
73687;PMS7003;62257;48.376;-4.378;2022-12-07T06:29:30;1.00;1.00;1.00
73687;PMS7003;62257;48.376;-4.378;2022-12-07T06:31:56;1.50;1.50;1.50
73687;PMS7003;62257;48.376;-4.378;2022-12-07T06:34:22;2.00;2.00;1.75
73687;PMS7003;62257;48.376;-4.378;2022-12-07T06:36:48;2.00;1.00;1.00
73687;PMS7003;62257;48.376;-4.378;2022-12-07T06:39:17;4.00;2.00;1.00
73687;PMS7003;62257;48.376;-4.378;2022-12-07T06:41:43;5.00;2.00;2.00
73687;PMS7003;62257;48.376;-4.378;2022-12-07T06:44:09;1.00;1.00;1.00
73687;PMS7003;62257;48.376;-4.378;2022-12-07T06:46:34;2.00;2.00;1.75
73687;PMS7003;62257;48.376;-4.378;2022-12-07T06:49:03;4.00;2.25;2.25
73687;PMS7003;62257;48.376;-4.378;2022-12-07T06:51:29;2.00;2.00;1.75
73687;PMS7003;62257;48.376;-4.378;2022-12-07T06:53:55;1.25;1.25;1.00
73687;PMS7003;62257;48.376;-4.378;2022-12-07T06:56:21;2.50;2.00;1.25
73687;PMS7003;62257;48.376;-4.378;2022-12-07T06:58:47;2.00;2.00;1.50
73687;PMS7003;62257;48.376;-4.378;2022-12-07T07:01:14;3.00;2.00;2.00
73687;PMS7003;62257;48.376;-4.378;2022-12-07T07:03:40;2.00;2.00;1.75
73687;PMS7003;62257;48.376;-4.378;2022-12-07T07:06:06;2.25;1.00;1.00
73687;PMS7003;62257;48.376;-4.378;2022-12-07T07:08:35;3.75;2.00;1.00
73687;PMS7003;62257;48.376;-4.378;2022-12-07T07:11:01;7.00;3.00;3.00
73687;PMS7003;62257;48.376;-4.378;2022-12-07T07:13:27;13.25;7.50;5.50
73687;PMS7003;62257;48.376;-4.378;2022-12-07T07:15:52;12.75;9.50;6.00
73687;PMS7003;62257;48.376;-4.378;2022-12-07T07:18:18;15.00;11.00;7.50
73687;PMS7003;62257;48.376;-4.378;2022-12-07T07:20:43;10.25;10.00;7.00
73687;PMS7003;62257;48.376;-4.378;2022-12-07T07:23:09;16.50;12.50;8.75
73687;PMS7003;62257;48.376;-4.378;2022-12-07T07:25:34;17.25;12.00;8.00
73687;PMS7003;62257;48.376;-4.378;2022-12-07T07:28:00;12.00;11.75;8.25
73687;PMS7003;62257;48.376;-4.378;2022-12-07T07:30:26;22.00;20.25;16.00
73687;PMS7003;62257;48.376;-4.378;2022-12-07T07:32:51;12.00;10.75;7.50
73687;PMS7003;62257;48.376;-4.378;2022-12-07T07:35:20;6.25;6.25;5.75
73687;PMS7003;62257;48.376;-4.378;2022-12-07T07:37:46;5.75;5.00;3.00
73687;PMS7003;62257;48.376;-4.378;2022-12-07T07:40:11;5.00;5.00;3.00
73687;PMS7003;62257;48.376;-4.378;2022-12-07T07:42:36;3.00;3.00;2.25
73687;PMS7003;62257;48.376;-4.378;2022-12-07T07:45:02;29.25;25.75;16.00
73687;PMS7003;62257;48.376;-4.378;2022-12-07T07:47:27;12.50;12.00;10.00
73687;PMS7003;62257;48.376;-4.378;2022-12-07T07:49:54;18.25;15.50;11.00
73687;PMS7003;62257;48.376;-4.378;2022-12-07T07:52:19;21.50;17.50;12.75
73687;PMS7003;62257;48.376;-4.378;2022-12-07T07:54:44;17.25;16.50;12.25
73687;PMS7003;62257;48.376;-4.378;2022-12-07T07:57:10;35.00;29.25;21.50
73687;PMS7003;62257;48.376;-4.378;2022-12-07T07:59:35;13.00;11.75;8.00
73687;PMS7003;62257;48.376;-4.378;2022-12-07T08:02:00;12.50;12.00;10.25
73687;PMS7003;62257;48.376;-4.378;2022-12-07T08:04:26;12.75;12.75;9.00
73687;PMS7003;62257;48.376;-4.378;2022-12-07T08:06:51;19.75;17.00;11.50
73687;PMS7003;62257;48.376;-4.378;2022-12-07T08:09:17;32.50;25.25;18.75
73687;PMS7003;62257;48.376;-4.378;2022-12-07T08:11:42;54.50;44.25;29.00
73687;PMS7003;62257;48.376;-4.378;2022-12-07T08:14:07;31.25;23.50;16.25
73687;PMS7003;62257;48.376;-4.378;2022-12-07T08:16:35;16.75;16.00;11.50
73687;PMS7003;62257;48.376;-4.378;2022-12-07T08:19:00;17.50;13.00;10.00
73687;PMS7003;62257;48.376;-4.378;2022-12-07T08:21:26;18.75;15.50;11.00
73687;PMS7003;62257;48.376;-4.378;2022-12-07T08:23:51;32.00;28.75;22.75
73687;PMS7003;62257;48.376;-4.378;2022-12-07T08:26:16;42.50;34.50;24.75
73687;PMS7003;62257;48.376;-4.378;2022-12-07T08:28:42;55.50;45.00;28.75
73687;PMS7003;62257;48.376;-4.378;2022-12-07T08:31:14;44.00;39.25;25.00
73687;PMS7003;62257;48.376;-4.378;2022-12-07T08:33:41;32.00;29.25;21.75
73687;PMS7003;62257;48.376;-4.378;2022-12-07T08:36:08;31.75;29.25;20.00
73687;PMS7003;62257;48.376;-4.378;2022-12-07T08:38:35;24.75;22.50;16.50
73687;PMS7003;62257;48.376;-4.378;2022-12-07T08:41:01;13.00;10.25;7.00
73687;PMS7003;62257;48.376;-4.378;2022-12-07T08:43:27;13.75;13.25;10.00
73687;PMS7003;62257;48.376;-4.378;2022-12-07T08:48:38;20.00;18.00;12.00
73687;PMS7003;62257;48.376;-4.378;2022-12-07T08:51:07;20.75;17.75;11.75
73687;PMS7003;62257;48.376;-4.378;2022-12-07T08:53:32;22.00;20.00;14.25
73687;PMS7003;62257;48.376;-4.378;2022-12-07T08:55:59;27.25;24.75;20.00
73687;PMS7003;62257;48.376;-4.378;2022-12-07T08:58:25;21.25;18.00;14.25
73687;PMS7003;62257;48.376;-4.378;2022-12-07T09:00:50;12.50;11.75;8.00
73687;PMS7003;62257;48.376;-4.378;2022-12-07T09:03:16;16.75;15.00;11.50
73687;PMS7003;62257;48.376;-4.378;2022-12-07T09:05:41;17.75;14.00;11.75
73687;PMS7003;62257;48.376;-4.378;2022-12-07T09:08:07;13.00;11.00;8.00
73687;PMS7003;62257;48.376;-4.378;2022-12-07T09:10:33;13.25;11.75;9.00
73687;PMS7003;62257;48.376;-4.378;2022-12-07T09:12:58;15.00;13.25;11.00
73687;PMS7003;62257;48.376;-4.378;2022-12-07T09:15:26;29.25;27.25;21.00
73687;PMS7003;62257;48.376;-4.378;2022-12-07T09:17:52;24.00;21.25;16.25
73687;PMS7003;62257;48.376;-4.378;2022-12-07T09:20:18;20.50;20.25;13.25
73687;PMS7003;62257;48.376;-4.378;2022-12-07T09:22:43;11.75;11.75;8.00
73687;PMS7003;62257;48.376;-4.378;2022-12-07T09:25:09;20.00;19.50;13.00
73687;PMS7003;62257;48.376;-4.378;2022-12-07T09:27:34;22.75;18.75;13.75
73687;PMS7003;62257;48.376;-4.378;2022-12-07T09:30:00;24.25;22.25;16.75
73687;PMS7003;62257;48.376;-4.378;2022-12-07T09:32:26;17.75;17.50;12.75
73687;PMS7003;62257;48.376;-4.378;2022-12-07T09:34:51;31.75;26.50;18.75
73687;PMS7003;62257;48.376;-4.378;2022-12-07T09:37:16;29.50;24.75;17.00
73687;PMS7003;62257;48.376;-4.378;2022-12-07T09:39:42;43.50;34.75;23.75
73687;PMS7003;62257;48.376;-4.378;2022-12-07T09:42:08;49.50;40.00;27.00
73687;PMS7003;62257;48.376;-4.378;2022-12-07T09:44:35;38.75;31.75;21.75
73687;PMS7003;62257;48.376;-4.378;2022-12-07T09:47:01;35.25;32.25;21.50
73687;PMS7003;62257;48.376;-4.378;2022-12-07T09:49:28;46.50;38.25;24.25
73687;PMS7003;62257;48.376;-4.378;2022-12-07T09:54:44;22.75;22.75;18.00
73687;PMS7003;62257;48.376;-4.378;2022-12-07T09:57:12;22.50;19.00;13.50
73687;PMS7003;62257;48.376;-4.378;2022-12-07T09:59:38;19.25;18.00;12.75
73687;PMS7003;62257;48.376;-4.378;2022-12-07T10:04:49;15.75;15.25;10.50
73687;PMS7003;62257;48.376;-4.378;2022-12-07T10:07:14;19.00;14.00;9.50
73687;PMS7003;62257;48.376;-4.378;2022-12-07T10:09:40;19.25;15.50;12.00
73687;PMS7003;62257;48.376;-4.378;2022-12-07T10:14:32;18.50;15.25;11.75
73687;PMS7003;62257;48.376;-4.378;2022-12-07T10:17:00;21.75;16.00;11.25
73687;PMS7003;62257;48.376;-4.378;2022-12-07T10:19:27;20.25;18.75;12.25
73687;PMS7003;62257;48.376;-4.378;2022-12-07T10:22:11;16.00;15.25;12.25
73687;PMS7003;62257;48.376;-4.378;2022-12-07T10:24:38;16.50;14.00;10.00
73687;PMS7003;62257;48.376;-4.378;2022-12-07T10:27:16;16.50;16.50;12.75
73687;PMS7003;62257;48.376;-4.378;2022-12-07T10:29:48;17.25;15.25;9.25
73687;PMS7003;62257;48.376;-4.378;2022-12-07T10:34:41;16.75;16.75;12.00
73687;PMS7003;62257;48.376;-4.378;2022-12-07T10:42:25;16.75;16.00;12.25
73687;PMS7003;62257;48.376;-4.378;2022-12-07T10:52:52;17.25;14.50;10.75
73687;PMS7003;62257;48.376;-4.378;2022-12-07T10:58:00;18.25;15.75;12.50
73687;PMS7003;62257;48.376;-4.378;2022-12-07T11:00:48;19.00;18.50;13.50
73687;PMS7003;62257;48.376;-4.378;2022-12-07T11:06:32;18.25;16.50;12.25
73687;PMS7003;62257;48.376;-4.378;2022-12-07T11:17:11;27.75;26.00;19.25
73687;PMS7003;62257;48.376;-4.378;2022-12-07T11:22:40;18.25;15.00;10.50
73687;PMS7003;62257;48.376;-4.378;2022-12-07T11:30:18;23.75;22.00;16.00
73687;PMS7003;62257;48.376;-4.378;2022-12-07T11:38:32;29.75;24.25;14.25
73687;PMS7003;62257;48.376;-4.378;2022-12-07T11:41:19;22.00;17.75;12.00
73687;PMS7003;62257;48.376;-4.378;2022-12-07T11:46:20;28.00;23.75;16.75
73687;PMS7003;62257;48.376;-4.378;2022-12-07T11:48:58;24.25;19.25;13.25
73687;PMS7003;62257;48.376;-4.378;2022-12-07T11:51:31;17.75;16.50;11.50
73687;PMS7003;62257;48.376;-4.378;2022-12-07T11:54:01;20.00;15.75;11.00
73687;PMS7003;62257;48.376;-4.378;2022-12-07T11:56:36;16.75;16.25;10.75
73687;PMS7003;62257;48.376;-4.378;2022-12-07T12:01:47;19.50;18.25;13.00
73687;PMS7003;62257;48.376;-4.378;2022-12-07T12:07:00;13.25;10.75;8.50
73687;PMS7003;62257;48.376;-4.378;2022-12-07T12:22:45;16.25;11.75;10.00
73687;PMS7003;62257;48.376;-4.378;2022-12-07T12:25:29;21.50;18.50;13.00
73687;PMS7003;62257;48.376;-4.378;2022-12-07T12:28:01;23.25;19.50;13.00
73687;PMS7003;62257;48.376;-4.378;2022-12-07T12:30:35;17.00;17.00;12.00
73687;PMS7003;62257;48.376;-4.378;2022-12-07T12:33:26;16.25;15.00;10.50
73687;PMS7003;62257;48.376;-4.378;2022-12-07T12:56:43;15.75;13.50;10.50
73687;PMS7003;62257;48.376;-4.378;2022-12-07T12:59:26;19.75;16.00;11.00
73687;PMS7003;62257;48.376;-4.378;2022-12-07T13:02:15;16.25;16.25;12.00
73687;PMS7003;62257;48.376;-4.378;2022-12-07T13:18:22;17.50;16.50;12.75
73687;PMS7003;62257;48.376;-4.378;2022-12-07T13:26:21;25.50;21.75;14.25
73687;PMS7003;62257;48.376;-4.378;2022-12-07T13:28:52;26.00;18.00;13.00
73687;PMS7003;62257;48.376;-4.378;2022-12-07T13:31:45;21.75;19.50;13.25
73687;PMS7003;62257;48.376;-4.378;2022-12-07T13:34:34;21.00;18.00;12.50
73687;PMS7003;62257;48.376;-4.378;2022-12-07T13:37:40;19.75;19.25;15.00
73687;PMS7003;62257;48.376;-4.378;2022-12-07T13:42:44;20.75;17.50;12.00
73687;PMS7003;62257;48.376;-4.378;2022-12-07T13:45:29;19.00;17.00;11.75
73687;PMS7003;62257;48.376;-4.378;2022-12-07T13:48:41;15.75;15.25;11.00
73687;PMS7003;62257;48.376;-4.378;2022-12-07T13:51:14;17.75;15.50;10.75
73687;PMS7003;62257;48.376;-4.378;2022-12-07T13:53:46;15.50;15.50;12.00
73687;PMS7003;62257;48.376;-4.378;2022-12-07T13:56:21;22.00;15.75;11.00
73687;PMS7003;62257;48.376;-4.378;2022-12-07T13:58:51;14.75;12.00;10.00
73687;PMS7003;62257;48.376;-4.378;2022-12-07T14:01:16;23.75;17.75;11.00
73687;PMS7003;62257;48.376;-4.378;2022-12-07T14:03:43;18.75;11.75;8.50
73687;PMS7003;62257;48.376;-4.378;2022-12-07T14:08:40;19.25;15.25;11.00
73687;PMS7003;62257;48.376;-4.378;2022-12-07T14:11:13;18.75;14.75;11.00
73687;PMS7003;62257;48.376;-4.378;2022-12-07T14:16:21;5.00;4.00;3.00
73687;PMS7003;62257;48.376;-4.378;2022-12-07T14:18:53;8.25;8.25;5.75
73687;PMS7003;62257;48.376;-4.378;2022-12-07T14:21:21;23.00;21.75;15.00
73687;PMS7003;62257;48.376;-4.378;2022-12-07T14:26:44;16.00;14.50;11.00
73687;PMS7003;62257;48.376;-4.378;2022-12-07T14:29:22;12.50;10.50;9.00
73687;PMS7003;62257;48.376;-4.378;2022-12-07T14:31:51;16.00;15.50;11.50
73687;PMS7003;62257;48.376;-4.378;2022-12-07T14:34:19;15.75;14.75;12.00
73687;PMS7003;62257;48.376;-4.378;2022-12-07T14:36:48;23.50;18.00;12.00
73687;PMS7003;62257;48.376;-4.378;2022-12-07T14:39:14;19.75;18.00;11.50
73687;PMS7003;62257;48.376;-4.378;2022-12-07T14:41:39;15.75;13.75;8.25
73687;PMS7003;62257;48.376;-4.378;2022-12-07T14:44:20;22.00;21.50;14.75
73687;PMS7003;62257;48.376;-4.378;2022-12-07T14:46:48;18.50;16.00;12.25
73687;PMS7003;62257;48.376;-4.378;2022-12-07T14:49:14;19.25;15.50;11.00
73687;PMS7003;62257;48.376;-4.378;2022-12-07T14:51:40;24.75;20.75;14.25
73687;PMS7003;62257;48.376;-4.378;2022-12-07T14:54:09;13.25;13.00;9.75
73687;PMS7003;62257;48.376;-4.378;2022-12-07T14:56:42;17.25;13.00;10.00
73687;PMS7003;62257;48.376;-4.378;2022-12-07T14:59:09;17.00;14.50;11.75
73687;PMS7003;62257;48.376;-4.378;2022-12-07T15:01:35;12.25;11.00;10.00
73687;PMS7003;62257;48.376;-4.378;2022-12-07T15:04:00;13.75;13.75;10.00
73687;PMS7003;62257;48.376;-4.378;2022-12-07T15:06:26;28.00;23.00;15.00
73687;PMS7003;62257;48.376;-4.378;2022-12-07T15:08:51;14.75;13.00;9.25
73687;PMS7003;62257;48.376;-4.378;2022-12-07T15:11:17;17.00;15.50;11.00
73687;PMS7003;62257;48.376;-4.378;2022-12-07T15:13:43;19.50;15.00;10.75
73687;PMS7003;62257;48.376;-4.378;2022-12-07T15:16:27;19.75;16.75;12.25
73687;PMS7003;62257;48.376;-4.378;2022-12-07T15:18:53;13.50;11.00;9.00
73687;PMS7003;62257;48.376;-4.378;2022-12-07T15:21:18;13.50;12.25;10.00
73687;PMS7003;62257;48.376;-4.378;2022-12-07T15:23:43;25.00;22.00;17.25
73687;PMS7003;62257;48.376;-4.378;2022-12-07T15:26:11;16.00;15.50;12.25
73687;PMS7003;62257;48.376;-4.378;2022-12-07T15:28:37;18.00;15.25;11.25
73687;PMS7003;62257;48.376;-4.378;2022-12-07T15:31:02;15.25;14.50;11.00
73687;PMS7003;62257;48.376;-4.378;2022-12-07T15:33:27;19.75;14.50;10.75
73687;PMS7003;62257;48.376;-4.378;2022-12-07T15:35:53;16.75;13.25;9.00
73687;PMS7003;62257;48.376;-4.378;2022-12-07T15:38:18;19.25;15.00;10.00
73687;PMS7003;62257;48.376;-4.378;2022-12-07T15:40:46;15.25;13.00;9.00
73687;PMS7003;62257;48.376;-4.378;2022-12-07T15:43:12;15.50;13.75;9.50
73687;PMS7003;62257;48.376;-4.378;2022-12-07T15:45:56;19.50;18.25;12.50
73687;PMS7003;62257;48.376;-4.378;2022-12-07T15:48:21;17.50;14.00;10.00
73687;PMS7003;62257;48.376;-4.378;2022-12-07T15:50:47;19.75;14.00;10.25
73687;PMS7003;62257;48.376;-4.378;2022-12-07T15:53:12;14.50;11.75;9.00
73687;PMS7003;62257;48.376;-4.378;2022-12-07T15:55:40;18.75;14.25;11.50
73687;PMS7003;62257;48.376;-4.378;2022-12-07T15:58:06;19.75;14.50;9.75
73687;PMS7003;62257;48.376;-4.378;2022-12-07T16:00:32;12.25;11.50;8.50
73687;PMS7003;62257;48.376;-4.378;2022-12-07T16:02:57;12.00;12.00;9.00
73687;PMS7003;62257;48.376;-4.378;2022-12-07T16:05:23;9.75;9.75;8.00
73687;PMS7003;62257;48.376;-4.378;2022-12-07T16:07:48;23.50;18.25;13.00
73687;PMS7003;62257;48.376;-4.378;2022-12-07T16:10:13;23.25;18.00;13.25
73687;PMS7003;62257;48.376;-4.378;2022-12-07T16:12:39;16.00;12.75;9.00
73687;PMS7003;62257;48.376;-4.378;2022-12-07T16:15:04;19.50;14.75;11.50
73687;PMS7003;62257;48.376;-4.378;2022-12-07T16:17:30;16.25;11.50;8.25
73687;PMS7003;62257;48.376;-4.378;2022-12-07T16:19:57;23.50;21.75;18.00
73687;PMS7003;62257;48.376;-4.378;2022-12-07T16:22:23;19.00;16.75;12.00
73687;PMS7003;62257;48.376;-4.378;2022-12-07T16:24:48;29.25;27.50;18.75
73687;PMS7003;62257;48.376;-4.378;2022-12-07T16:27:14;18.00;13.75;9.50
73687;PMS7003;62257;48.376;-4.378;2022-12-07T16:29:39;24.25;18.25;12.75
73687;PMS7003;62257;48.376;-4.378;2022-12-07T16:32:05;17.00;17.00;12.00
73687;PMS7003;62257;48.376;-4.378;2022-12-07T16:34:30;25.00;22.75;15.75
73687;PMS7003;62257;48.376;-4.378;2022-12-07T16:36:55;29.75;22.25;16.75